Time;durP1;ratioP1;P1;durP2;ratioP2;P2;SDS_P1;SDS_P2;PMS_P1;PMS_P2;Temp;Humidity;BMP_temperature;BMP_pressure;BME280_temperature;BME280_humidity;BME280_pressure;Samples;Min_cycle;Max_cycle;Signal;HPM_P1;HPM_P2
2023/01/16 00:00:17;;;;;;;1.97;0.80;;;6.60;99.90;;;;;;5082347;28;20587;-75
2023/01/16 00:02:42;;;;;;;1.40;0.70;;;6.50;99.90;;;;;;5091496;28;20211;-75
2023/01/16 00:05:08;;;;;;;4.30;1.20;;;6.50;99.90;;;;;;5089805;28;20534;-75
2023/01/16 00:07:33;;;;;;;1.60;0.70;;;6.60;99.90;;;;;;5083867;28;20664;-75
2023/01/16 00:09:59;;;;;;;2.30;1.40;;;6.50;99.90;;;;;;5071437;28;20166;-75
2023/01/16 00:12:24;;;;;;;2.57;1.23;;;6.50;99.90;;;;;;5071228;28;20215;-75
2023/01/16 00:14:50;;;;;;;1.20;0.70;;;6.40;99.90;;;;;;5071270;28;20546;-75
2023/01/16 00:17:15;;;;;;;2.80;0.77;;;6.40;99.90;;;;;;5075130;28;20201;-75
2023/01/16 00:19:41;;;;;;;3.23;1.20;;;6.40;99.90;;;;;;5091570;28;20181;-75
2023/01/16 00:22:06;;;;;;;1.63;0.77;;;6.50;99.90;;;;;;5091584;28;20173;-75
2023/01/16 00:24:32;;;;;;;1.50;0.83;;;6.40;99.90;;;;;;5091204;28;20193;-75
2023/01/16 00:26:57;;;;;;;1.10;0.70;;;6.30;99.90;;;;;;5084976;28;20361;-74
2023/01/16 00:29:23;;;;;;;1.27;0.70;;;6.00;99.90;;;;;;5070089;28;20166;-75
2023/01/16 00:31:48;;;;;;;1.20;0.77;;;5.90;99.90;;;;;;5071472;28;20178;-75
2023/01/16 00:34:14;;;;;;;1.37;0.90;;;5.90;99.90;;;;;;5071334;28;20613;-75
2023/01/16 00:36:40;;;;;;;6.23;1.13;;;5.90;99.90;;;;;;5070221;28;20655;-75
2023/01/16 00:39:05;;;;;;;1.97;0.90;;;5.90;99.90;;;;;;5071358;28;20713;-75
2023/01/16 00:41:31;;;;;;;2.30;0.90;;;6.00;99.90;;;;;;5070172;28;20205;-75
2023/01/16 00:43:58;;;;;;;1.97;1.13;;;6.10;99.90;;;;;;5071294;28;20558;-75
2023/01/16 00:46:24;;;;;;;1.90;1.03;;;6.10;99.90;;;;;;5069968;28;20212;-75
2023/01/16 00:48:50;;;;;;;1.97;0.90;;;6.20;99.90;;;;;;5076934;28;20787;-75
2023/01/16 00:51:16;;;;;;;1.83;0.63;;;6.30;99.90;;;;;;5091566;28;20396;-76
2023/01/16 00:53:41;;;;;;;2.53;0.87;;;6.40;99.90;;;;;;5091624;28;20268;-75
2023/01/16 00:56:07;;;;;;;1.10;0.70;;;6.40;99.90;;;;;;5091288;28;20177;-75
2023/01/16 00:58:32;;;;;;;1.00;0.70;;;6.50;99.90;;;;;;5091397;28;20196;-75
2023/01/16 01:00:58;;;;;;;2.90;0.80;;;6.60;99.90;;;;;;5083901;28;20181;-75
2023/01/16 01:03:23;;;;;;;1.20;0.80;;;6.60;99.90;;;;;;5072897;28;20186;-75
2023/01/16 01:05:49;;;;;;;2.27;0.83;;;6.60;99.90;;;;;;5074706;28;20169;-75
2023/01/16 01:08:14;;;;;;;1.47;0.70;;;6.60;99.90;;;;;;5074678;28;20282;-75
2023/01/16 01:10:40;;;;;;;1.63;0.80;;;6.60;99.90;;;;;;5074725;28;20789;-75
2023/01/16 01:13:06;;;;;;;3.77;1.00;;;6.70;99.90;;;;;;5075115;28;20167;-75
2023/01/16 01:15:32;;;;;;;1.37;0.57;;;6.70;99.90;;;;;;5074776;28;20701;-75
2023/01/16 01:17:58;;;;;;;3.10;1.10;;;6.70;99.90;;;;;;5074556;28;20486;-75
2023/01/16 01:20:24;;;;;;;3.10;1.10;;;6.70;99.90;;;;;;5074594;28;20401;-75
2023/01/16 01:22:49;;;;;;;1.00;0.70;;;6.80;99.90;;;;;;5074595;28;20177;-75
2023/01/16 01:25:15;;;;;;;1.20;0.80;;;6.90;99.90;;;;;;5074622;28;20595;-75
2023/01/16 01:27:40;;;;;;;3.43;0.80;;;6.90;99.90;;;;;;5074425;28;20186;-75
2023/01/16 01:30:07;;;;;;;2.50;0.93;;;6.90;99.90;;;;;;5074366;28;20245;-75
2023/01/16 01:32:32;;;;;;;1.30;0.80;;;6.90;99.90;;;;;;5074447;28;20163;-75
2023/01/16 01:34:58;;;;;;;2.37;0.73;;;6.90;99.90;;;;;;5074077;28;20472;-75
2023/01/16 01:37:24;;;;;;;2.77;1.40;;;6.90;99.90;;;;;;5077559;28;20233;-75
2023/01/16 01:39:50;;;;;;;2.60;1.00;;;6.70;99.90;;;;;;5086884;28;20912;-75
2023/01/16 01:42:51;;;;;;;1.57;1.00;;;6.80;99.90;;;;;;5093146;28;20272;-75
2023/01/16 01:45:13;;;;;;;1.57;0.90;;;6.70;99.90;;;;;;5092776;28;20619;-75
2023/01/16 01:47:43;;;;;;;1.50;0.70;;;6.70;99.90;;;;;;5094171;28;20530;-75
2023/01/16 01:50:26;;;;;;;3.00;0.70;;;6.70;99.90;;;;;;5093414;28;20411;-75
2023/01/16 01:52:53;;;;;;;1.30;0.80;;;6.70;99.90;;;;;;5076992;28;20503;-75
2023/01/16 01:55:20;;;;;;;3.07;1.07;;;6.50;99.90;;;;;;5076678;28;20925;-75
2023/01/16 01:57:52;;;;;;;1.30;0.60;;;6.50;99.90;;;;;;5073895;28;20460;-75
2023/01/16 02:00:20;;;;;;;1.63;0.90;;;6.40;99.90;;;;;;5073846;28;20819;-75
2023/01/16 02:02:52;;;;;;;1.50;0.70;;;6.30;99.90;;;;;;5072520;28;20420;-75
2023/01/16 02:05:27;;;;;;;1.00;0.60;;;6.20;99.90;;;;;;5076751;28;20467;-75
2023/01/16 02:07:53;;;;;;;2.03;0.70;;;6.00;99.90;;;;;;5089078;28;20440;-75
2023/01/16 02:10:24;;;;;;;1.87;0.70;;;5.90;99.90;;;;;;5073407;28;20420;-75
2023/01/16 02:12:51;;;;;;;1.30;0.70;;;5.80;99.90;;;;;;5073599;28;20483;-75
2023/01/16 02:15:16;;;;;;;1.50;0.60;;;5.70;99.90;;;;;;5088249;28;20418;-75
2023/01/16 02:20:36;;;;;;;1.60;0.80;;;5.50;99.90;;;;;;5073470;28;20193;-75
2023/01/16 02:23:01;;;;;;;2.70;0.83;;;5.40;99.90;;;;;;5073448;28;20416;-75
2023/01/16 02:25:45;;;;;;;1.00;0.60;;;5.40;99.90;;;;;;5071762;28;20452;-75
2023/01/16 02:28:35;;;;;;;1.80;0.60;;;5.30;99.90;;;;;;5071914;28;20216;-75
2023/01/16 02:31:03;;;;;;;2.60;0.60;;;5.20;99.90;;;;;;5078796;28;20443;-75
2023/01/16 02:33:51;;;;;;;1.00;0.50;;;5.20;99.90;;;;;;5073108;28;20409;-75
2023/01/16 02:36:28;;;;;;;1.50;0.60;;;5.10;99.90;;;;;;5072840;28;20492;-75
2023/01/16 02:39:18;;;;;;;2.07;1.13;;;5.10;99.90;;;;;;5071648;28;20440;-75
2023/01/16 02:41:58;;;;;;;1.00;0.50;;;5.00;99.90;;;;;;5081961;28;20407;-75
2023/01/16 02:44:28;;;;;;;1.10;0.60;;;4.90;99.90;;;;;;5081216;28;20447;-75
2023/01/16 02:47:19;;;;;;;1.00;0.60;;;5.00;99.90;;;;;;5087879;28;20446;-75
2023/01/16 02:50:08;;;;;;;1.00;0.50;;;5.00;99.90;;;;;;5091799;28;20403;-75
2023/01/16 02:52:41;;;;;;;1.00;0.50;;;4.90;99.90;;;;;;5090853;28;20513;-75
2023/01/16 02:55:26;;;;;;;1.67;0.70;;;4.90;99.90;;;;;;5072387;28;20502;-75
2023/01/16 02:57:57;;;;;;;1.00;0.60;;;4.90;99.90;;;;;;5074090;28;20515;-75
2023/01/16 03:00:23;;;;;;;1.20;0.67;;;4.90;99.90;;;;;;5072615;28;20515;-75
2023/01/16 03:02:48;;;;;;;1.00;0.50;;;4.90;99.90;;;;;;5072640;28;20819;-75
2023/01/16 03:05:14;;;;;;;1.00;0.60;;;4.90;99.90;;;;;;5076409;28;20197;-75
2023/01/16 03:08:03;;;;;;;1.20;0.63;;;4.90;99.90;;;;;;5092357;28;20198;-75
2023/01/16 03:10:50;;;;;;;1.00;0.50;;;4.90;99.90;;;;;;5050637;28;20238;-75
2023/01/16 03:13:38;;;;;;;1.00;0.50;;;4.70;99.90;;;;;;5074783;28;20381;-75
2023/01/16 03:16:10;;;;;;;5.43;1.67;;;4.80;99.90;;;;;;5092550;28;20384;-75
2023/01/16 03:18:50;;;;;;;1.30;0.60;;;4.70;99.90;;;;;;5082612;28;20458;-75
2023/01/16 03:21:34;;;;;;;1.00;0.60;;;4.70;99.90;;;;;;5072320;28;20400;-75
2023/01/16 03:24:20;;;;;;;3.20;0.70;;;4.70;99.90;;;;;;5072506;28;20531;-75
2023/01/16 03:26:48;;;;;;;1.10;0.60;;;4.80;99.90;;;;;;5072084;28;20424;-75
2023/01/16 03:29:21;;;;;;;1.10;0.60;;;4.80;99.90;;;;;;5086717;28;20411;-75
2023/01/16 03:32:19;;;;;;;1.27;0.70;;;4.80;99.90;;;;;;5080149;28;20520;-75
2023/01/16 03:34:57;;;;;;;1.47;0.67;;;4.90;99.90;;;;;;5059556;28;20470;-75
2023/01/16 03:37:31;;;;;;;1.80;0.60;;;4.80;99.90;;;;;;5070729;28;20518;-75
2023/01/16 03:40:03;;;;;;;1.00;0.60;;;4.70;99.90;;;;;;5072113;28;20459;-75
2023/01/16 03:42:52;;;;;;;1.30;0.60;;;4.70;99.90;;;;;;5078992;28;20497;-75
2023/01/16 03:45:41;;;;;;;2.37;0.60;;;4.80;99.90;;;;;;5065029;28;20468;-75
2023/01/16 03:48:20;;;;;;;1.57;0.80;;;4.90;99.90;;;;;;5086091;28;20431;-75
2023/01/16 03:50:53;;;;;;;3.67;0.80;;;5.00;99.90;;;;;;5091946;28;20426;-75
2023/01/16 03:53:26;;;;;;;1.40;0.70;;;5.00;99.90;;;;;;5089803;28;20403;-75
2023/01/16 03:55:58;;;;;;;1.20;0.70;;;5.10;99.90;;;;;;5071733;28;20412;-75
2023/01/16 03:58:38;;;;;;;1.97;1.00;;;5.10;99.90;;;;;;5080473;28;20438;-75
2023/01/16 04:01:22;;;;;;;1.10;0.60;;;5.00;99.90;;;;;;5092165;28;20383;-75
2023/01/16 04:03:59;;;;;;;1.77;0.83;;;5.00;99.90;;;;;;5092035;28;20439;-75
2023/01/16 04:06:44;;;;;;;1.20;0.70;;;4.80;99.90;;;;;;5091699;28;20392;-75
2023/01/16 04:09:18;;;;;;;1.57;0.80;;;4.70;99.90;;;;;;5092088;28;20384;-75
2023/01/16 04:11:44;;;;;;;1.70;0.90;;;4.60;99.90;;;;;;5091991;28;20392;-75
2023/01/16 04:14:13;;;;;;;3.30;0.93;;;4.50;99.90;;;;;;5091923;28;20432;-75
2023/01/16 04:16:40;;;;;;;1.20;0.70;;;4.50;99.90;;;;;;5091742;28;20518;-75
2023/01/16 04:19:06;;;;;;;1.00;0.60;;;4.50;99.90;;;;;;5091917;28;20404;-75
2023/01/16 04:21:32;;;;;;;4.13;1.00;;;4.50;99.90;;;;;;5073964;28;20948;-75
2023/01/16 04:23:59;;;;;;;1.43;0.90;;;4.50;99.90;;;;;;5071700;28;20452;-75
2023/01/16 04:26:25;;;;;;;3.77;0.93;;;4.50;99.90;;;;;;5070113;28;20204;-75
2023/01/16 04:28:54;;;;;;;2.97;0.83;;;4.50;99.90;;;;;;5070452;28;20413;-75
2023/01/16 04:31:21;;;;;;;5.40;0.80;;;4.60;99.90;;;;;;5071998;28;20412;-75
2023/01/16 04:33:47;;;;;;;2.40;1.50;;;4.60;99.90;;;;;;5070329;28;20412;-75
2023/01/16 04:36:12;;;;;;;3.90;1.33;;;4.60;99.90;;;;;;5069996;28;20561;-75
2023/01/16 04:38:38;;;;;;;2.13;1.00;;;4.60;99.90;;;;;;5073466;28;20210;-75
2023/01/16 04:41:03;;;;;;;2.50;1.10;;;4.60;99.90;;;;;;5074449;28;20184;-75
2023/01/16 04:43:29;;;;;;;3.23;1.30;;;4.60;99.90;;;;;;5075142;28;20281;-75
2023/01/16 04:45:55;;;;;;;1.90;1.00;;;4.70;99.90;;;;;;5073771;28;20169;-75
2023/01/16 04:48:20;;;;;;;6.80;1.23;;;4.70;99.90;;;;;;5073900;28;20194;-75
2023/01/16 04:50:49;;;;;;;1.60;0.80;;;4.80;99.90;;;;;;5075157;28;20189;-75
2023/01/16 04:53:15;;;;;;;2.67;0.87;;;4.80;99.90;;;;;;5076889;28;20254;-75
2023/01/16 04:55:41;;;;;;;5.83;1.13;;;4.90;99.90;;;;;;5095132;28;20427;-75
2023/01/16 04:58:06;;;;;;;1.50;1.00;;;4.90;99.90;;;;;;5094006;28;20181;-75
2023/01/16 05:00:32;;;;;;;4.47;1.07;;;5.00;99.90;;;;;;5095206;28;20193;-75
2023/01/16 05:02:57;;;;;;;1.00;0.60;;;5.10;99.90;;;;;;5094881;28;20177;-75
2023/01/16 05:05:23;;;;;;;2.70;1.17;;;5.20;99.90;;;;;;5094844;28;20200;-75
2023/01/16 05:08:15;;;;;;;4.20;1.13;;;5.20;99.90;;;;;;5095078;28;20195;-75
2023/01/16 05:10:34;;;;;;;1.70;0.67;;;5.20;99.90;;;;;;5094871;28;20535;-75
2023/01/16 05:12:59;;;;;;;3.40;1.20;;;5.30;99.90;;;;;;5075001;28;20526;-75
2023/01/16 05:15:25;;;;;;;1.27;0.83;;;5.30;99.90;;;;;;5074516;28;20211;-75
2023/01/16 05:17:50;;;;;;;1.10;0.83;;;5.30;99.90;;;;;;5074531;28;20247;-75
2023/01/16 05:20:16;;;;;;;5.43;1.00;;;5.40;99.90;;;;;;5074545;28;20263;-75
2023/01/16 05:22:41;;;;;;;4.30;1.30;;;5.50;99.90;;;;;;5093570;28;20174;-75
2023/01/16 05:25:07;;;;;;;1.17;0.70;;;5.50;99.90;;;;;;5093224;28;20391;-75
2023/01/16 05:27:32;;;;;;;2.07;0.77;;;5.50;99.90;;;;;;5094576;28;20584;-75
2023/01/16 05:29:58;;;;;;;1.23;0.87;;;5.50;99.90;;;;;;5094589;28;20168;-75
2023/01/16 05:32:23;;;;;;;1.00;0.60;;;5.50;99.90;;;;;;5093852;28;20178;-75
2023/01/16 05:34:49;;;;;;;2.80;1.00;;;5.60;99.90;;;;;;5093037;28;20180;-75
2023/01/16 05:37:14;;;;;;;1.30;0.80;;;5.60;99.90;;;;;;5094465;28;20185;-75
2023/01/16 05:39:40;;;;;;;1.13;0.80;;;5.60;99.90;;;;;;5094301;28;20189;-75
2023/01/16 05:42:20;;;;;;;1.30;0.70;;;5.70;99.90;;;;;;5094426;28;20188;-75
2023/01/16 05:44:49;;;;;;;1.20;0.80;;;5.70;99.90;;;;;;5094126;28;20610;-76
2023/01/16 05:47:15;;;;;;;2.10;1.07;;;5.70;99.90;;;;;;5094344;28;20423;-75
2023/01/16 05:49:40;;;;;;;1.60;0.90;;;5.70;99.90;;;;;;5091720;28;20418;-75
2023/01/16 05:52:06;;;;;;;2.37;0.80;;;5.70;99.90;;;;;;5092961;28;20535;-75
2023/01/16 05:54:31;;;;;;;1.30;0.70;;;5.80;99.90;;;;;;5092313;28;20318;-75
2023/01/16 05:56:57;;;;;;;1.03;0.70;;;5.80;99.90;;;;;;5072636;28;20194;-75
2023/01/16 05:59:22;;;;;;;1.10;0.63;;;5.80;99.90;;;;;;5073899;28;20194;-75
2023/01/16 06:01:48;;;;;;;1.20;0.70;;;5.80;99.90;;;;;;5073769;28;20182;-75
2023/01/16 06:04:13;;;;;;;2.70;0.90;;;5.80;99.90;;;;;;5073587;28;20194;-75
2023/01/16 06:06:39;;;;;;;2.73;0.73;;;5.80;99.90;;;;;;5073654;28;20201;-75
2023/01/16 06:09:05;;;;;;;3.10;1.43;;;5.90;99.90;;;;;;5093795;28;20169;-75
2023/01/16 06:11:30;;;;;;;1.27;1.10;;;5.90;99.90;;;;;;5093854;28;20177;-75
2023/01/16 06:13:56;;;;;;;3.00;1.10;;;5.90;99.90;;;;;;5077263;28;20200;-75
2023/01/16 06:16:22;;;;;;;1.20;0.70;;;5.90;99.90;;;;;;5073256;28;20177;-75
2023/01/16 06:18:48;;;;;;;1.20;0.80;;;5.90;99.90;;;;;;5073452;28;20231;-75
2023/01/16 06:21:14;;;;;;;1.10;0.70;;;6.00;99.90;;;;;;5073498;28;20439;-75
2023/01/16 06:23:40;;;;;;;3.70;0.90;;;5.90;99.90;;;;;;5073368;28;20447;-76
2023/01/16 06:26:09;;;;;;;1.43;0.70;;;5.90;99.90;;;;;;5073239;28;20573;-75
2023/01/16 06:28:38;;;;;;;2.03;0.80;;;5.90;99.90;;;;;;5073246;28;20558;-75
2023/01/16 06:31:04;;;;;;;1.50;0.70;;;5.90;99.90;;;;;;5073349;28;20405;-74
2023/01/16 06:33:30;;;;;;;1.10;0.70;;;5.90;99.90;;;;;;5073114;28;20458;-75
2023/01/16 06:35:55;;;;;;;1.00;0.60;;;6.00;99.90;;;;;;5088810;28;20911;-75
2023/01/16 06:38:22;;;;;;;2.27;0.90;;;6.00;99.90;;;;;;5091897;28;20213;-75
2023/01/16 06:40:47;;;;;;;1.10;0.60;;;6.10;99.90;;;;;;5093379;28;20146;-75
2023/01/16 06:43:15;;;;;;;3.53;0.90;;;6.00;99.90;;;;;;5093115;28;20404;-75
2023/01/16 06:45:40;;;;;;;1.70;0.80;;;6.00;99.90;;;;;;5093007;28;20165;-75
2023/01/16 06:48:06;;;;;;;2.93;1.33;;;5.90;99.90;;;;;;5076591;28;20516;-75
2023/01/16 06:50:32;;;;;;;1.80;0.90;;;6.00;99.90;;;;;;5071537;28;20166;-75
2023/01/16 06:52:57;;;;;;;1.20;0.60;;;6.00;99.90;;;;;;5072744;28;20178;-75
2023/01/16 06:55:23;;;;;;;3.00;1.20;;;6.10;99.90;;;;;;5072506;28;20587;-75
2023/01/16 06:57:48;;;;;;;4.90;0.90;;;6.10;99.90;;;;;;5072665;28;20186;-75
2023/01/16 07:00:14;;;;;;;2.30;1.20;;;6.00;99.90;;;;;;5072699;28;20182;-75
2023/01/16 07:02:40;;;;;;;2.30;1.30;;;6.00;99.90;;;;;;5072584;28;20184;-75
2023/01/16 07:05:10;;;;;;;2.30;1.20;;;6.00;99.90;;;;;;5072286;28;20444;-75
2023/01/16 07:07:36;;;;;;;4.43;1.20;;;6.00;99.90;;;;;;5072624;28;20592;-75
2023/01/16 07:10:03;;;;;;;1.97;0.90;;;6.00;99.90;;;;;;5072490;28;20470;-75
2023/01/16 07:12:28;;;;;;;1.87;0.90;;;5.90;99.90;;;;;;5088264;28;20412;-75
2023/01/16 07:23:46;;;;;;;1.40;0.97;;;5.80;99.90;;;;;;5089182;28;20458;-74
2023/01/16 07:26:14;;;;;;;2.23;1.20;;;5.90;99.90;;;;;;5068569;28;20419;-74
2023/01/16 07:28:40;;;;;;;1.30;1.00;;;5.90;99.90;;;;;;5072209;28;20822;-75
2023/01/16 07:31:06;;;;;;;2.30;1.47;;;5.90;99.90;;;;;;5072186;28;20401;-74
2023/01/16 07:33:32;;;;;;;3.87;1.63;;;5.90;99.90;;;;;;5070900;28;20534;-75
2023/01/16 07:35:58;;;;;;;4.13;1.30;;;5.90;99.90;;;;;;5081123;28;20415;-75
2023/01/16 07:38:24;;;;;;;1.93;1.10;;;6.00;99.90;;;;;;5092105;28;20439;-75
2023/01/16 07:40:49;;;;;;;1.77;1.07;;;5.90;99.90;;;;;;5080859;28;20228;-75
2023/01/16 07:43:15;;;;;;;3.30;1.50;;;5.90;99.90;;;;;;5072013;28;20166;-76
2023/01/16 07:45:40;;;;;;;2.30;1.00;;;5.80;99.90;;;;;;5070375;28;20197;-77
2023/01/16 07:48:06;;;;;;;5.37;1.50;;;5.60;99.90;;;;;;5071925;28;20529;-77
2023/01/16 07:50:31;;;;;;;1.93;1.17;;;5.50;99.90;;;;;;5071986;28;20241;-77
2023/01/16 07:52:57;;;;;;;2.13;1.10;;;5.30;99.90;;;;;;5071915;28;20286;-77
2023/01/16 07:55:23;;;;;;;3.73;1.30;;;5.30;99.90;;;;;;5073667;28;20173;-77
2023/01/16 07:57:49;;;;;;;1.70;0.93;;;5.20;99.90;;;;;;5092049;28;20588;-77
2023/01/16 08:00:15;;;;;;;3.30;1.40;;;5.20;99.90;;;;;;5092090;28;20169;-76
2023/01/16 08:02:41;;;;;;;4.50;1.60;;;5.10;99.90;;;;;;5092038;28;20200;-76
2023/01/16 08:05:07;;;;;;;2.10;1.57;;;5.10;99.90;;;;;;5090996;28;20810;-76
2023/01/16 08:07:32;;;;;;;2.20;1.00;;;5.10;99.90;;;;;;5071819;28;20420;-76
2023/01/16 08:09:58;;;;;;;1.40;0.80;;;5.10;99.90;;;;;;5071739;28;20404;-76
2023/01/16 08:12:23;;;;;;;1.70;1.07;;;5.10;99.90;;;;;;5072022;28;20174;-76
2023/01/16 08:14:49;;;;;;;2.50;1.03;;;5.10;99.90;;;;;;5076516;28;20228;-77
2023/01/16 08:17:15;;;;;;;3.13;0.90;;;5.10;99.90;;;;;;5095147;28;20667;-76
2023/01/16 08:19:40;;;;;;;2.07;1.00;;;5.10;99.90;;;;;;5074566;28;20177;-76
2023/01/16 08:22:06;;;;;;;1.60;0.97;;;5.20;99.90;;;;;;5075670;28;20405;-76
2023/01/16 08:24:31;;;;;;;2.03;0.93;;;5.20;99.90;;;;;;5075329;28;20280;-76
2023/01/16 08:26:57;;;;;;;3.10;1.33;;;5.20;99.90;;;;;;5094160;28;20198;-76
2023/01/16 08:29:23;;;;;;;2.77;1.83;;;5.30;99.90;;;;;;5094634;28;20169;-75
2023/01/16 08:31:49;;;;;;;6.07;1.10;;;5.30;99.90;;;;;;5095673;28;20404;-76
2023/01/16 08:34:15;;;;;;;3.07;0.90;;;5.30;99.90;;;;;;5095511;28;20411;-76
2023/01/16 08:36:40;;;;;;;4.23;1.00;;;5.40;99.90;;;;;;5076455;28;20557;-75
2023/01/16 08:39:07;;;;;;;1.40;0.90;;;5.40;99.90;;;;;;5075186;28;20558;-75
2023/01/16 08:52:35;;;;;;;2.17;1.30;;;5.40;99.90;;;;;;5075506;28;20400;-75
2023/01/16 08:55:01;;;;;;;2.13;0.80;;;5.40;99.90;;;;;;5074846;28;20816;-75
2023/01/16 08:57:27;;;;;;;2.43;0.77;;;5.30;99.90;;;;;;5081658;28;20435;-75
2023/01/16 08:59:54;;;;;;;1.50;0.80;;;5.30;99.90;;;;;;5095124;28;20219;-75
2023/01/16 09:02:20;;;;;;;1.40;1.00;;;5.20;99.90;;;;;;5095197;28;20403;-76
2023/01/16 09:04:46;;;;;;;1.60;1.10;;;5.20;99.90;;;;;;5094790;28;20439;-75
2023/01/16 09:07:11;;;;;;;7.30;0.87;;;5.10;99.90;;;;;;5094979;28;20476;-75
2023/01/16 09:09:37;;;;;;;1.30;0.80;;;5.10;99.90;;;;;;5094243;28;20181;-75
2023/01/16 09:14:47;;;;;;;1.50;1.03;;;5.00;99.90;;;;;;5094336;28;20733;-75
2023/01/16 09:17:12;;;;;;;3.70;0.80;;;5.10;99.90;;;;;;5089246;28;20531;-75
2023/01/16 09:19:38;;;;;;;1.33;0.80;;;5.00;99.90;;;;;;5090056;28;20581;-74
2023/01/16 09:22:07;;;;;;;2.50;0.90;;;5.00;99.90;;;;;;5093349;28;20658;-75
2023/01/16 09:24:34;;;;;;;1.73;0.90;;;5.00;99.90;;;;;;5093999;28;20221;-76
2023/01/16 09:27:01;;;;;;;2.13;0.93;;;5.00;99.90;;;;;;5093706;28;20428;-75
2023/01/16 09:29:27;;;;;;;1.30;0.93;;;5.10;99.90;;;;;;5094615;28;20855;-75
2023/01/16 09:31:53;;;;;;;1.40;0.67;;;5.10;99.90;;;;;;5094577;28;20431;-75
2023/01/16 09:34:19;;;;;;;1.83;1.33;;;5.10;99.90;;;;;;5093098;28;20174;-75
2023/01/16 09:36:44;;;;;;;1.90;1.00;;;5.10;99.90;;;;;;5094585;28;21001;-75
2023/01/16 09:39:10;;;;;;;1.17;0.80;;;5.10;99.90;;;;;;5093554;28;20269;-75
2023/01/16 09:44:28;;;;;;;1.60;0.70;;;5.10;99.90;;;;;;5073858;28;20270;-75
2023/01/16 09:46:55;;;;;;;2.20;0.60;;;5.10;99.90;;;;;;5106570;28;20472;-74
2023/01/16 09:49:26;;;;;;;3.00;0.80;;;5.20;99.90;;;;;;5074088;28;20409;-75
2023/01/16 10:00:45;;;;;;;1.20;0.70;;;5.40;99.90;;;;;;5085446;28;20411;-75
2023/01/16 10:03:10;;;;;;;1.33;0.77;;;5.40;99.90;;;;;;5089203;28;20416;-75
2023/01/16 10:05:49;;;;;;;1.33;0.90;;;5.50;99.90;;;;;;5089032;28;20626;-75
2023/01/16 10:08:35;;;;;;;1.20;0.70;;;5.50;99.90;;;;;;5073687;28;20186;-75
2023/01/16 10:11:17;;;;;;;2.57;1.00;;;5.60;99.90;;;;;;5089273;28;20408;-75
2023/01/16 10:13:57;;;;;;;1.10;0.67;;;5.60;99.90;;;;;;5073585;28;20496;-75
2023/01/16 10:16:41;;;;;;;1.30;0.77;;;5.70;99.90;;;;;;5073278;28;20433;-75
2023/01/16 10:19:23;;;;;;;2.40;0.73;;;5.70;99.90;;;;;;5073354;28;20400;-75
2023/01/16 10:22:05;;;;;;;1.20;0.70;;;5.80;99.90;;;;;;5072489;28;20442;-75
2023/01/16 10:24:55;;;;;;;2.60;0.67;;;5.90;99.90;;;;;;5073060;28;20432;-75
2023/01/16 10:27:39;;;;;;;1.00;0.60;;;5.90;99.90;;;;;;5085316;28;20439;-75
2023/01/16 10:30:19;;;;;;;1.70;0.77;;;6.00;99.90;;;;;;5093485;28;20400;-75
2023/01/16 10:32:51;;;;;;;1.33;0.73;;;6.00;99.90;;;;;;5093672;28;20745;-75
2023/01/16 10:35:34;;;;;;;3.23;1.03;;;6.00;99.90;;;;;;5092571;28;20782;-75
2023/01/16 10:38:19;;;;;;;1.20;0.60;;;6.10;99.90;;;;;;5092799;28;20518;-75
2023/01/16 10:40:46;;;;;;;1.00;0.60;;;6.00;99.90;;;;;;5093421;28;20939;-75
2023/01/16 10:49:26;;;;;;;1.10;0.60;;;6.20;99.90;;;;;;5062299;28;20404;-75
2023/01/16 10:51:52;;;;;;;1.20;0.70;;;6.30;99.90;;;;;;5072832;28;20439;-75
2023/01/16 10:54:18;;;;;;;1.00;0.60;;;6.70;99.90;;;;;;5077660;28;20432;-75
2023/01/16 10:56:43;;;;;;;1.70;0.83;;;7.40;99.90;;;;;;5092828;28;20201;-76
2023/01/16 10:59:11;;;;;;;1.40;0.80;;;8.00;99.90;;;;;;5093053;28;20180;-75
2023/01/16 11:01:37;;;;;;;1.10;0.70;;;8.30;99.90;;;;;;5092953;28;20616;-75
2023/01/16 11:04:05;;;;;;;1.70;0.80;;;8.10;99.90;;;;;;5091885;28;20443;-75
2023/01/16 11:06:31;;;;;;;2.30;0.60;;;7.90;99.90;;;;;;5071026;28;20454;-75
2023/01/16 11:09:01;;;;;;;1.27;0.60;;;7.50;99.90;;;;;;5072485;28;20459;-77
2023/01/16 11:20:29;;;;;;;1.00;0.50;;;7.70;99.90;;;;;;5093282;28;20421;-79
2023/01/16 11:22:58;;;;;;;1.20;0.70;;;8.50;99.90;;;;;;5093000;28;20403;-74
2023/01/16 11:32:11;;;;;;;1.63;0.90;;;8.40;99.90;;;;;;5071143;28;20388;-70
2023/01/16 11:34:39;;;;;;;1.10;0.60;;;8.00;99.90;;;;;;5071780;28;20781;-70
2023/01/16 11:37:07;;;;;;;1.70;0.80;;;8.00;99.90;;;;;;5072074;28;20808;-69
2023/01/16 11:39:35;;;;;;;1.20;0.67;;;7.80;99.90;;;;;;5087104;28;20467;-70
2023/01/16 11:47:52;;;;;;;1.63;0.70;;;7.10;99.90;;;;;;5092227;28;20800;-71
2023/01/16 11:50:36;;;;;;;1.30;0.73;;;7.00;99.90;;;;;;5071960;28;20405;-72
2023/01/16 11:53:02;;;;;;;1.10;0.60;;;6.90;99.90;;;;;;5071919;28;20400;-71
2023/01/16 11:55:38;;;;;;;1.10;0.70;;;6.80;99.90;;;;;;5071582;28;20409;-70
2023/01/16 11:58:20;;;;;;;2.30;0.70;;;6.70;99.90;;;;;;5071851;28;20585;-70
2023/01/16 12:01:02;;;;;;;1.40;0.80;;;6.60;99.90;;;;;;5072222;28;20503;-70
2023/01/16 12:03:37;;;;;;;1.07;0.60;;;6.50;99.90;;;;;;5071883;28;20419;-70
2023/01/16 12:06:05;;;;;;;2.03;0.80;;;6.30;99.90;;;;;;5071545;28;20407;-71
2023/01/16 12:08:59;;;;;;;1.20;0.70;;;6.30;99.90;;;;;;5071716;28;20424;-70
2023/01/16 12:11:41;;;;;;;1.10;0.70;;;6.20;99.90;;;;;;5077283;28;20408;-70
2023/01/16 12:14:17;;;;;;;1.20;0.80;;;6.20;99.90;;;;;;5091942;28;20407;-70
2023/01/16 12:17:23;;;;;;;1.20;0.80;;;6.20;99.90;;;;;;5091911;28;20418;-70
2023/01/16 12:19:57;;;;;;;1.10;0.70;;;6.30;99.90;;;;;;5091956;28;20478;-70
2023/01/16 12:22:42;;;;;;;1.43;0.87;;;6.20;99.90;;;;;;5077905;28;20441;-69
2023/01/16 12:25:37;;;;;;;1.20;0.80;;;6.20;99.90;;;;;;5071160;28;20873;-70
2023/01/16 12:28:12;;;;;;;1.33;0.70;;;6.20;99.90;;;;;;5069907;28;20444;-70
2023/01/16 12:31:10;;;;;;;1.30;0.73;;;6.30;99.90;;;;;;5071559;28;20400;-70
2023/01/16 12:34:02;;;;;;;1.77;0.80;;;6.30;99.90;;;;;;5071676;28;20446;-70
2023/01/16 12:36:42;;;;;;;1.10;0.70;;;6.50;99.90;;;;;;5070682;28;20408;-70
2023/01/16 12:39:29;;;;;;;2.33;0.93;;;6.60;99.90;;;;;;5071177;28;20416;-71
2023/01/16 12:45:19;;;;;;;1.30;0.70;;;6.90;99.90;;;;;;5069724;28;20510;-70
2023/01/16 12:47:51;;;;;;;1.10;0.60;;;6.80;99.90;;;;;;5071358;28;20431;-70
2023/01/16 12:50:33;;;;;;;1.73;1.00;;;6.70;99.90;;;;;;5090030;28;20419;-70
2023/01/16 12:53:04;;;;;;;1.30;0.70;;;6.70;99.90;;;;;;5091656;28;20399;-70
2023/01/16 12:55:30;;;;;;;1.30;0.90;;;6.80;99.90;;;;;;5091334;28;20391;-70
2023/01/16 12:57:58;;;;;;;1.00;0.60;;;6.80;99.90;;;;;;5091528;28;20844;-71
2023/01/16 13:00:28;;;;;;;1.10;0.70;;;6.70;99.90;;;;;;5075435;28;20174;-70
2023/01/16 13:02:57;;;;;;;2.60;0.87;;;6.70;99.90;;;;;;5075005;28;20401;-70
2023/01/16 13:05:28;;;;;;;1.30;0.73;;;6.70;99.90;;;;;;5074510;28;20466;-70
2023/01/16 13:08:05;;;;;;;1.10;0.70;;;6.60;99.90;;;;;;5074814;28;21114;-70
2023/01/16 13:13:31;;;;;;;5.70;1.17;;;6.50;99.90;;;;;;5095237;28;20458;-70
2023/01/16 13:16:16;;;;;;;1.30;0.80;;;6.50;99.90;;;;;;5094672;28;20406;-70
2023/01/16 13:18:51;;;;;;;2.80;1.00;;;6.60;99.90;;;;;;5090023;28;20475;-70
2023/01/16 13:21:21;;;;;;;3.53;0.90;;;6.70;99.90;;;;;;5107269;28;20783;-70
2023/01/16 13:24:24;;;;;;;1.23;0.70;;;6.70;99.90;;;;;;5074443;28;20887;-70
2023/01/16 13:27:03;;;;;;;1.37;0.70;;;6.70;99.90;;;;;;5065370;28;20424;-70
2023/01/16 13:29:41;;;;;;;1.20;0.77;;;6.70;99.90;;;;;;5085236;28;20414;-71
2023/01/16 13:32:22;;;;;;;1.33;0.80;;;6.60;99.90;;;;;;5094465;28;20826;-71
2023/01/16 13:35:10;;;;;;;1.50;0.90;;;6.50;99.90;;;;;;5094368;28;20403;-70
2023/01/16 13:37:54;;;;;;;1.33;0.93;;;6.60;99.90;;;;;;5083547;28;21073;-70
2023/01/16 13:41:06;;;;;;;1.40;0.80;;;6.50;99.90;;;;;;5075971;28;20427;-71
2023/01/16 13:46:23;;;;;;;1.03;0.63;;;6.30;99.90;;;;;;5073847;28;20404;-71
2023/01/16 13:48:52;;;;;;;1.20;0.73;;;6.20;99.90;;;;;;5078756;28;20420;-72
2023/01/16 13:51:20;;;;;;;1.20;0.87;;;6.10;99.90;;;;;;5094273;28;20189;-71
2023/01/16 13:53:51;;;;;;;1.20;0.80;;;6.00;99.90;;;;;;5094247;28;20928;-71
2023/01/16 13:56:23;;;;;;;1.10;0.60;;;6.00;99.90;;;;;;5092633;28;20912;-71
2023/01/16 13:58:56;;;;;;;2.33;1.07;;;6.00;99.90;;;;;;5089300;28;20409;-70
2023/01/16 14:01:57;;;;;;;1.20;0.70;;;5.90;99.90;;;;;;5073516;28;20412;-70
2023/01/16 14:04:26;;;;;;;1.23;0.77;;;5.90;99.90;;;;;;5031100;28;20485;-71
2023/01/16 14:09:57;;;;;;;1.70;0.80;;;5.80;99.90;;;;;;5084720;28;20418;-71
2023/01/16 14:12:33;;;;;;;1.00;0.60;;;5.70;99.90;;;;;;5093521;28;20423;-70
2023/01/16 14:18:20;;;;;;;1.40;0.90;;;5.70;99.90;;;;;;5093903;28;20465;-71
2023/01/16 14:20:49;;;;;;;1.10;0.90;;;5.70;99.90;;;;;;5085376;28;20419;-71
2023/01/16 14:26:08;;;;;;;1.73;0.80;;;5.70;99.90;;;;;;5077710;28;20458;-71
2023/01/16 14:28:35;;;;;;;1.70;1.00;;;5.60;99.90;;;;;;5081983;28;20420;-70
2023/01/16 14:31:01;;;;;;;1.20;0.80;;;5.60;99.90;;;;;;5083369;28;20420;-70
2023/01/16 14:33:28;;;;;;;1.57;0.97;;;5.60;99.90;;;;;;5083507;28;20447;-71
2023/01/16 14:35:56;;;;;;;1.10;0.67;;;5.60;99.90;;;;;;5081468;28;20458;-71
2023/01/16 14:38:26;;;;;;;1.10;0.70;;;5.60;99.90;;;;;;5083594;28;20428;-71